Bloomingdale, Georgia
Current Conditions -  °F | °C
As of 10:53 AM on Sunday 23 Nov 2014 (Local Time) from KSAV Reporting Station
Moderate Rain Moderate Rain  
Wind Chill: 65°   Ceiling: 500
Heat Index: 65°   Visibility: 1mi
Dew Point: 62°   Wind: 10mph
Humidity: 90%   Direction: 100°E
Pressure: 30.04"   Gusts: NA
Location:  32.13°N, 81.3°W
Report Text: KSAV 231553Z 10009KT 1SM R10/P6000FT RA BR SCT003 BKN005 OVC008 18/17 A3004 RMK AO2 SLP172 P0012 T01830167
Loading
Personal Weather Stations






























Interactive Weather Map New forecast layout! Learn more

10-Day Weather Forecast

Advertisements
Track Severe Weather on mobile